Time;durP1;ratioP1;P1;durP2;ratioP2;P2;SDS_P1;SDS_P2;PMS_P1;PMS_P2;Temp;Humidity;BMP_temperature;BMP_pressure;BME280_temperature;BME280_humidity;BME280_pressure;Samples;Min_cycle;Max_cycle;Signal;HPM_P1;HPM_P2
2022/04/01 00:00:31;;;;;;;5.97;3.22;;;0.70;99.90;;;;;;12433488;28;20041;-82
2022/04/01 00:06:33;;;;;;;6.50;3.33;;;0.80;99.90;;;;;;12440150;28;20054;-79
2022/04/01 00:12:44;;;;;;;5.55;3.30;;;0.60;99.90;;;;;;12431843;28;20074;-81
2022/04/01 00:18:46;;;;;;;6.07;3.50;;;0.70;99.90;;;;;;12453291;28;20053;-80
2022/04/01 00:24:48;;;;;;;6.53;3.47;;;0.60;99.90;;;;;;12446962;28;20098;-82
2022/04/01 00:30:50;;;;;;;6.10;3.50;;;0.60;99.90;;;;;;12431450;28;20053;-80
2022/04/01 00:36:54;;;;;;;5.78;3.50;;;0.60;99.90;;;;;;12435568;28;20437;-82
2022/04/01 00:42:56;;;;;;;9.18;3.72;;;0.60;99.90;;;;;;12425637;28;20482;-80
2022/04/01 00:48:57;;;;;;;4.60;3.08;;;0.50;99.90;;;;;;12435637;28;20077;-82
2022/04/01 00:55:01;;;;;;;4.80;3.08;;;0.60;99.90;;;;;;12432157;28;20137;-82
2022/04/01 01:01:03;;;;;;;5.97;3.13;;;0.50;99.90;;;;;;12447348;28;20045;-80
2022/04/01 01:07:07;;;;;;;5.20;3.33;;;0.50;99.90;;;;;;12428962;28;20080;-82
2022/04/01 01:13:13;;;;;;;5.25;3.20;;;0.40;99.90;;;;;;12430062;28;20653;-81
2022/04/01 01:19:16;;;;;;;4.25;2.80;;;0.40;99.90;;;;;;12427148;28;20144;-83
2022/04/01 01:25:18;;;;;;;5.43;3.05;;;0.40;99.90;;;;;;12429971;28;20073;-81
2022/04/01 01:31:20;;;;;;;5.22;3.10;;;0.40;99.90;;;;;;12438931;28;20092;-83
2022/04/01 01:37:22;;;;;;;5.45;3.30;;;0.40;99.90;;;;;;12437055;28;20053;-83
2022/04/01 01:43:24;;;;;;;5.10;2.90;;;0.40;99.90;;;;;;12451427;28;20065;-83
2022/04/01 01:49:26;;;;;;;4.75;2.88;;;0.40;99.90;;;;;;12448964;28;20473;-83
2022/04/01 01:55:29;;;;;;;4.30;3.00;;;0.30;99.90;;;;;;12434049;28;20046;-80
2022/04/01 02:01:32;;;;;;;7.82;3.20;;;0.30;99.90;;;;;;12428639;28;20042;-84
2022/04/01 02:07:34;;;;;;;5.03;2.90;;;0.30;99.90;;;;;;12429434;28;20165;-82
2022/04/01 02:13:35;;;;;;;4.80;2.88;;;0.30;99.90;;;;;;12425163;28;20481;-83
2022/04/01 02:19:37;;;;;;;5.95;2.85;;;0.30;99.90;;;;;;12431069;28;20057;-83
2022/04/01 02:25:42;;;;;;;5.75;2.90;;;0.40;99.90;;;;;;12424092;28;20422;-80
2022/04/01 02:31:46;;;;;;;4.70;2.90;;;0.30;99.90;;;;;;12429186;28;20048;-80
2022/04/01 02:37:48;;;;;;;5.65;2.65;;;0.30;99.90;;;;;;12426127;28;20119;-82
2022/04/01 02:43:50;;;;;;;3.80;2.40;;;0.30;99.90;;;;;;12425964;28;20057;-80
2022/04/01 02:49:52;;;;;;;4.18;2.70;;;0.40;99.90;;;;;;12430206;28;20057;-80
2022/04/01 02:55:54;;;;;;;3.72;2.25;;;0.40;99.90;;;;;;12436512;28;20061;-80
2022/04/01 03:01:56;;;;;;;4.10;2.70;;;0.30;99.90;;;;;;12429114;28;20045;-83
2022/04/01 03:07:58;;;;;;;4.60;2.70;;;0.30;99.90;;;;;;12429959;28;20050;-80
2022/04/01 03:14:00;;;;;;;3.53;2.33;;;0.30;99.90;;;;;;12437661;28;20048;-81
2022/04/01 03:20:02;;;;;;;4.05;2.25;;;0.30;99.90;;;;;;12437113;28;20169;-83
2022/04/01 03:26:06;;;;;;;4.55;2.35;;;0.30;99.90;;;;;;12445926;28;20079;-85
2022/04/01 03:32:13;;;;;;;4.82;2.25;;;0.30;99.90;;;;;;12428443;28;20133;-84
2022/04/01 03:38:15;;;;;;;3.17;1.90;;;0.40;99.90;;;;;;12428627;28;20538;-81
2022/04/01 03:44:20;;;;;;;4.35;2.72;;;0.30;99.90;;;;;;12427560;28;20900;-84
2022/04/01 03:50:34;;;;;;;3.35;2.00;;;0.30;99.90;;;;;;12429609;28;20050;-81
2022/04/01 03:56:38;;;;;;;5.80;2.38;;;0.40;99.90;;;;;;12434046;28;20069;-84
2022/04/01 04:02:44;;;;;;;4.95;1.98;;;0.20;99.90;;;;;;12428820;28;20607;-82
2022/04/01 04:08:46;;;;;;;3.90;2.15;;;0.30;99.90;;;;;;12430982;28;20081;-82
2022/04/01 04:14:53;;;;;;;5.45;2.58;;;0.20;99.90;;;;;;12428723;28;20060;-84
2022/04/01 04:21:10;;;;;;;4.03;2.50;;;0.10;99.90;;;;;;12433536;28;20102;-81
2022/04/01 04:27:22;;;;;;;6.93;2.58;;;0.20;99.90;;;;;;12444820;28;20133;-82
2022/04/01 04:33:31;;;;;;;5.35;2.75;;;0.20;99.90;;;;;;12434007;28;20466;-82
2022/04/01 04:39:34;;;;;;;5.05;2.60;;;0.20;99.90;;;;;;12450036;28;20053;-83
2022/04/01 04:45:36;;;;;;;6.40;2.70;;;0.20;99.90;;;;;;12458844;28;20046;-84
2022/04/01 04:51:38;;;;;;;4.13;2.60;;;0.10;99.90;;;;;;12436471;28;20507;-84
2022/04/01 04:57:43;;;;;;;4.35;2.70;;;0.10;99.90;;;;;;12443739;28;20053;-85
2022/04/01 05:03:54;;;;;;;5.28;2.83;;;0.20;99.90;;;;;;12434515;28;20557;-84
2022/04/01 05:10:21;;;;;;;4.68;2.90;;;0.20;99.90;;;;;;12438511;28;20060;-82
2022/04/01 05:17:01;;;;;;;4.15;2.67;;;0.20;99.90;;;;;;12435243;28;20061;-84
2022/04/01 05:23:18;;;;;;;6.07;3.10;;;0.20;99.90;;;;;;12429424;28;20100;-83
2022/04/01 05:29:25;;;;;;;7.75;2.92;;;0.20;99.90;;;;;;12430398;28;20046;-84
2022/04/01 05:35:32;;;;;;;5.18;3.15;;;0.20;99.90;;;;;;12434543;28;20053;-84
2022/04/01 05:41:35;;;;;;;7.78;3.50;;;0.20;99.90;;;;;;12433479;28;20053;-84
2022/04/01 05:47:37;;;;;;;5.80;3.58;;;0.20;99.90;;;;;;12438857;28;20383;-84
2022/04/01 05:53:42;;;;;;;5.57;3.50;;;0.10;99.90;;;;;;12435250;28;20103;-85
2022/04/01 05:59:45;;;;;;;6.90;4.30;;;0.20;99.90;;;;;;12454278;28;20137;-82
2022/04/01 06:05:55;;;;;;;7.78;3.53;;;0.20;99.90;;;;;;12441998;28;20057;-82
2022/04/01 06:12:01;;;;;;;7.32;3.40;;;0.30;99.90;;;;;;12439712;28;20136;-82
2022/04/01 06:18:22;;;;;;;5.65;3.55;;;0.20;99.90;;;;;;12432543;28;20045;-84
2022/04/01 06:25:04;;;;;;;5.47;3.38;;;0.20;99.90;;;;;;12436972;28;20568;-82
2022/04/01 06:31:07;;;;;;;7.43;3.25;;;0.40;99.90;;;;;;12415149;28;20079;-82
2022/04/01 06:37:26;;;;;;;6.20;3.28;;;0.40;99.90;;;;;;12412140;28;20042;-83
2022/04/01 06:43:28;;;;;;;7.47;3.47;;;0.40;99.90;;;;;;12420250;28;20045;-83
2022/04/01 06:49:30;;;;;;;5.75;3.40;;;0.40;99.90;;;;;;12423928;28;20045;-85
2022/04/01 06:55:32;;;;;;;5.07;3.25;;;0.40;99.90;;;;;;12416497;28;20434;-84
2022/04/01 07:01:34;;;;;;;7.55;3.33;;;0.40;99.90;;;;;;12428875;28;20071;-83
2022/04/01 07:07:38;;;;;;;5.90;2.78;;;0.40;99.90;;;;;;12423806;28;20137;-82
2022/04/01 07:13:40;;;;;;;6.27;3.30;;;0.40;99.90;;;;;;12428600;28;20042;-84
2022/04/01 07:19:42;;;;;;;5.05;3.00;;;0.60;99.90;;;;;;12430488;28;20050;-82
2022/04/01 07:25:44;;;;;;;7.53;3.63;;;0.60;99.90;;;;;;12435931;28;20034;-82
2022/04/01 07:38:13;;;;;;;6.13;3.35;;;0.60;99.90;;;;;;12427740;28;20081;-85
2022/04/01 07:44:15;;;;;;;5.47;2.92;;;0.80;99.90;;;;;;12418728;28;20112;-84
2022/04/01 07:50:19;;;;;;;7.68;3.50;;;0.80;99.90;;;;;;12424328;28;20056;-85
2022/04/01 07:56:21;;;;;;;6.17;3.27;;;0.80;99.90;;;;;;12435488;28;20053;-83
2022/04/01 08:02:23;;;;;;;5.90;3.25;;;1.00;99.90;;;;;;12431356;28;20111;-82
2022/04/01 08:08:25;;;;;;;6.72;3.80;;;1.10;99.90;;;;;;12429554;28;20667;-83
2022/04/01 08:14:27;;;;;;;6.65;3.10;;;1.20;99.90;;;;;;12424285;28;20091;-83
2022/04/01 08:20:30;;;;;;;6.53;3.22;;;1.40;99.90;;;;;;12428261;28;20123;-84
2022/04/01 08:26:31;;;;;;;6.13;3.00;;;1.30;99.90;;;;;;12421510;28;20058;-85
2022/04/01 08:32:35;;;;;;;6.65;3.33;;;1.30;99.90;;;;;;12427792;28;20091;-83
2022/04/01 08:38:37;;;;;;;6.43;3.00;;;1.50;99.90;;;;;;12435375;28;20077;-83
2022/04/01 08:44:41;;;;;;;5.78;3.10;;;1.80;99.90;;;;;;12426459;28;20050;-84
2022/04/01 08:50:43;;;;;;;5.70;3.00;;;2.00;99.90;;;;;;12435845;28;20055;-85
2022/04/01 08:56:44;;;;;;;7.45;3.22;;;2.10;99.90;;;;;;12437036;28;20045;-84
2022/04/01 09:03:14;;;;;;;6.72;3.10;;;2.10;99.90;;;;;;12434932;28;20042;-82
2022/04/01 09:09:27;;;;;;;8.25;3.20;;;2.00;99.90;;;;;;12453425;28;20727;-85
2022/04/01 09:15:40;;;;;;;5.72;3.00;;;1.70;99.90;;;;;;12436470;28;20059;-82
2022/04/01 09:21:47;;;;;;;6.10;3.25;;;2.00;99.90;;;;;;12423367;28;20445;-83
2022/04/01 09:27:51;;;;;;;7.35;2.92;;;2.30;99.90;;;;;;12429327;28;20112;-84
2022/04/01 09:33:57;;;;;;;4.47;2.88;;;2.30;99.90;;;;;;12438077;28;20144;-82
2022/04/01 09:39:59;;;;;;;6.35;2.53;;;2.30;99.90;;;;;;12435509;28;20604;-84
2022/04/01 09:46:25;;;;;;;6.95;3.17;;;2.50;99.90;;;;;;12430631;28;20053;-81
2022/04/01 09:52:34;;;;;;;4.93;3.17;;;2.50;99.90;;;;;;12420934;28;20037;-84
2022/04/01 09:58:35;;;;;;;4.65;2.53;;;2.70;99.90;;;;;;12418675;28;20103;-82
2022/04/01 10:04:37;;;;;;;5.65;3.22;;;2.70;99.90;;;;;;12426583;28;20136;-85
2022/04/01 10:10:44;;;;;;;5.32;3.10;;;2.80;99.90;;;;;;12429620;28;20045;-85
2022/04/01 10:16:48;;;;;;;7.20;3.30;;;2.90;99.90;;;;;;12426412;28;20490;-81
2022/04/01 10:22:51;;;;;;;4.37;2.70;;;3.20;99.90;;;;;;12435086;28;20044;-81
2022/04/01 10:28:53;;;;;;;6.60;3.00;;;3.20;99.90;;;;;;12448081;28;20115;-85
2022/04/01 10:34:58;;;;;;;4.18;2.50;;;3.10;99.90;;;;;;12433309;28;20092;-83
2022/04/01 10:41:15;;;;;;;4.63;2.50;;;2.90;99.90;;;;;;12437099;28;20049;-85
2022/04/01 10:47:18;;;;;;;4.78;2.67;;;2.80;99.90;;;;;;12436589;28;20172;-85
2022/04/01 10:53:45;;;;;;;4.35;2.30;;;2.80;99.90;;;;;;12429799;28;20395;-86
2022/04/01 10:59:51;;;;;;;7.70;2.90;;;2.80;99.90;;;;;;12433019;28;20058;-86
2022/04/01 11:06:27;;;;;;;7.30;2.70;;;3.00;99.90;;;;;;12431170;28;22597;-83
2022/04/01 11:12:35;;;;;;;4.97;2.38;;;3.40;99.90;;;;;;12439532;28;20046;-84
2022/04/01 11:19:10;;;;;;;6.70;2.75;;;3.70;99.90;;;;;;12439703;28;20049;-88
2022/04/01 11:25:33;;;;;;;4.40;2.58;;;4.00;99.90;;;;;;12451467;28;20119;-86
2022/04/01 11:31:39;;;;;;;4.95;2.10;;;3.70;99.90;;;;;;12440805;28;20091;-87
2022/04/01 11:37:44;;;;;;;6.93;2.10;;;4.00;99.90;;;;;;12448537;28;20049;-89
2022/04/01 11:43:46;;;;;;;4.55;2.50;;;3.90;99.90;;;;;;12455693;28;20049;-89
2022/04/01 11:49:47;;;;;;;4.75;2.13;;;3.90;99.90;;;;;;12476127;28;20606;-91
2022/04/01 11:55:49;;;;;;;4.10;2.13;;;3.70;99.90;;;;;;12441824;28;20088;-90
2022/04/01 12:02:01;;;;;;;2.97;1.60;;;3.40;99.90;;;;;;12442865;28;20042;-86
2022/04/01 12:14:24;;;;;;;5.93;1.90;;;3.30;99.90;;;;;;12440805;28;20100;-90
2022/04/01 12:20:28;;;;;;;6.20;1.80;;;3.00;99.90;;;;;;12436510;28;20049;-86
2022/04/01 12:26:31;;;;;;;5.30;2.03;;;3.20;99.90;;;;;;12436408;28;20061;-89
2022/04/01 12:32:34;;;;;;;3.40;1.70;;;2.80;99.90;;;;;;12440499;28;20165;-87
2022/04/01 12:38:40;;;;;;;6.50;2.00;;;2.60;99.90;;;;;;12443486;28;20192;-86
2022/04/01 12:44:44;;;;;;;4.68;2.10;;;2.00;99.90;;;;;;12434247;28;20091;-84
2022/04/01 12:50:48;;;;;;;6.85;2.20;;;1.90;99.90;;;;;;12451277;28;20073;-84
2022/04/01 12:56:51;;;;;;;5.35;3.13;;;2.00;99.90;;;;;;12462396;28;20103;-87
2022/04/01 13:02:54;;;;;;;7.78;2.13;;;1.90;99.90;;;;;;12486391;28;20081;-88
2022/04/01 13:09:07;;;;;;;6.25;2.13;;;1.70;99.90;;;;;;12449743;28;20050;-86
2022/04/01 13:15:27;;;;;;;3.80;2.00;;;1.70;99.90;;;;;;12455229;28;20053;-88
2022/04/01 13:21:28;;;;;;;5.22;2.45;;;2.00;99.90;;;;;;12436240;28;20045;-87
2022/04/01 13:27:31;;;;;;;5.07;2.40;;;2.10;99.90;;;;;;12435180;28;20803;-87
2022/04/01 13:33:32;;;;;;;5.47;2.53;;;2.20;99.90;;;;;;12436013;28;20038;-85
2022/04/01 13:39:35;;;;;;;6.55;3.00;;;2.20;99.90;;;;;;12434181;28;20053;-88
2022/04/01 13:45:39;;;;;;;7.68;3.08;;;2.30;99.90;;;;;;12436944;28;20123;-86
2022/04/01 13:51:42;;;;;;;;;;;2.40;99.90;;;;;;12436084;28;20041;-87
2022/04/01 13:57:44;;;;;;;7.32;3.03;;;2.40;99.90;;;;;;12429521;28;19929;-86
2022/04/01 14:03:46;;;;;;;6.53;3.05;;;2.20;99.90;;;;;;12420280;28;20092;-85
2022/04/01 14:09:48;;;;;;;5.95;3.40;;;2.30;99.90;;;;;;12434619;28;20073;-86
2022/04/01 14:16:02;;;;;;;6.38;3.05;;;2.20;99.90;;;;;;12432346;28;20041;-84
2022/04/01 14:22:05;;;;;;;5.63;3.10;;;2.40;99.90;;;;;;12440087;28;20833;-86
2022/04/01 14:28:07;;;;;;;6.18;3.50;;;2.30;99.90;;;;;;12433615;28;20410;-87
2022/04/01 14:34:09;;;;;;;5.50;3.00;;;2.20;99.90;;;;;;12426877;28;20115;-83
2022/04/01 14:40:11;;;;;;;7.22;3.80;;;2.30;99.90;;;;;;12430167;28;20144;-86
2022/04/01 14:46:16;;;;;;;5.47;3.45;;;2.20;99.90;;;;;;12434518;28;20080;-87
2022/04/01 14:52:18;;;;;;;5.50;3.60;;;2.10;99.90;;;;;;12436314;28;20064;-84
2022/04/01 14:58:20;;;;;;;6.88;3.83;;;2.20;99.90;;;;;;12439577;28;20093;-87
2022/04/01 15:04:22;;;;;;;7.68;3.70;;;2.20;99.90;;;;;;12426148;28;20104;-86
2022/04/01 15:10:25;;;;;;;8.65;4.45;;;2.20;99.90;;;;;;12434021;28;20972;-85
2022/04/01 15:16:27;;;;;;;5.80;3.47;;;2.20;99.90;;;;;;12433946;28;20118;-84
2022/04/01 15:22:29;;;;;;;6.20;3.78;;;2.10;99.90;;;;;;12450013;28;20042;-88
2022/04/01 15:28:31;;;;;;;9.98;3.55;;;1.90;99.90;;;;;;12435689;28;20056;-84
2022/04/01 15:34:32;;;;;;;10.68;4.97;;;2.00;99.90;;;;;;12431760;28;20050;-84
2022/04/01 15:40:37;;;;;;;8.05;3.03;;;2.00;99.90;;;;;;12425456;28;20216;-87
2022/04/01 15:46:42;;;;;;;5.95;3.50;;;1.90;99.90;;;;;;12434442;28;20556;-88
2022/04/01 15:52:45;;;;;;;4.38;3.00;;;1.90;99.90;;;;;;12436321;28;20045;-83
2022/04/01 15:58:48;;;;;;;7.57;3.22;;;1.90;99.90;;;;;;12429689;28;20049;-84
2022/04/01 16:04:57;;;;;;;5.30;2.92;;;1.90;99.90;;;;;;12429851;28;20544;-84
2022/04/01 16:10:59;;;;;;;10.23;3.83;;;2.00;99.90;;;;;;12438531;28;20382;-84
2022/04/01 16:17:01;;;;;;;13.27;3.65;;;2.00;99.90;;;;;;12441497;28;20080;-84
2022/04/01 16:23:04;;;;;;;8.57;3.80;;;2.00;99.90;;;;;;12430842;28;20045;-88
2022/04/01 16:29:06;;;;;;;6.57;3.60;;;2.00;99.90;;;;;;12430843;28;20041;-87
2022/04/01 16:35:10;;;;;;;7.40;3.22;;;2.10;99.90;;;;;;12444525;28;20491;-85
2022/04/01 16:41:12;;;;;;;5.57;3.07;;;2.10;99.90;;;;;;12449374;28;20050;-85
2022/04/01 16:47:14;;;;;;;4.90;2.65;;;2.00;99.90;;;;;;12468653;28;20667;-87
2022/04/01 16:53:16;;;;;;;7.05;2.85;;;2.00;99.90;;;;;;12452688;28;20095;-87
2022/04/01 16:59:19;;;;;;;6.80;2.65;;;2.10;99.90;;;;;;12449270;28;20064;-84
2022/04/01 17:05:21;;;;;;;8.13;2.28;;;1.90;99.90;;;;;;12429581;28;20041;-87
2022/04/01 17:17:44;;;;;;;5.78;2.45;;;1.90;99.90;;;;;;12433912;28;20049;-84
2022/04/01 17:23:46;;;;;;;5.45;2.88;;;2.00;99.90;;;;;;12433182;28;20046;-83
2022/04/01 17:29:48;;;;;;;5.40;2.50;;;2.00;99.90;;;;;;12416206;28;20383;-84
2022/04/01 17:35:53;;;;;;;10.70;2.22;;;2.10;99.90;;;;;;12410806;28;20046;-84
2022/04/01 17:41:57;;;;;;;4.65;2.00;;;2.00;99.90;;;;;;12440560;28;20818;-87
2022/04/01 17:48:03;;;;;;;7.22;2.15;;;2.00;99.90;;;;;;12438428;28;20038;-83
2022/04/01 17:54:05;;;;;;;5.25;2.03;;;1.80;99.90;;;;;;12436481;28;20096;-85
2022/04/01 18:00:12;;;;;;;7.95;2.15;;;1.80;99.90;;;;;;12437754;28;20057;-82
2022/04/01 18:06:16;;;;;;;7.72;2.50;;;1.70;99.90;;;;;;12440978;28;20064;-84
2022/04/01 18:12:18;;;;;;;4.67;1.97;;;1.80;99.90;;;;;;12428373;28;20631;-85
2022/04/01 18:18:21;;;;;;;5.75;1.75;;;1.80;99.90;;;;;;12440739;28;20073;-85
2022/04/01 18:25:10;;;;;;;6.47;2.00;;;1.80;99.90;;;;;;12426621;28;20049;-85
2022/04/01 18:30:52;;;;;;;5.15;2.00;;;1.80;99.90;;;;;;12426359;28;20122;-86
2022/04/01 18:36:57;;;;;;;4.32;1.98;;;1.80;99.90;;;;;;12429296;28;20184;-85
2022/04/01 18:43:02;;;;;;;5.88;1.83;;;1.80;99.90;;;;;;12444601;28;20041;-86
2022/04/01 18:49:04;;;;;;;4.03;1.67;;;1.90;99.90;;;;;;12433199;28;20053;-86
2022/04/01 18:55:07;;;;;;;5.28;2.42;;;1.90;99.90;;;;;;12429755;28;20493;-83
2022/04/01 19:01:13;;;;;;;6.22;2.28;;;1.90;99.90;;;;;;12434432;28;20100;-83
2022/04/01 19:07:32;;;;;;;5.97;2.17;;;1.90;99.90;;;;;;12423846;28;20089;-85
2022/04/01 19:13:34;;;;;;;7.72;2.97;;;1.90;99.90;;;;;;12425711;28;20097;-83
2022/04/01 19:19:37;;;;;;;3.75;1.80;;;1.90;99.90;;;;;;12429984;28;20054;-83
2022/04/01 19:25:41;;;;;;;3.58;1.42;;;2.00;99.90;;;;;;12431363;28;20045;-85
2022/04/01 19:31:43;;;;;;;5.00;1.70;;;1.90;99.90;;;;;;12412189;28;20116;-86
2022/04/01 19:37:45;;;;;;;3.90;1.73;;;2.00;99.90;;;;;;12425303;28;20084;-86
2022/04/01 19:43:46;;;;;;;4.80;1.92;;;2.00;99.90;;;;;;12420539;28;20550;-83
2022/04/01 19:49:48;;;;;;;3.03;1.58;;;1.90;99.90;;;;;;12435638;28;20053;-84
2022/04/01 19:55:51;;;;;;;5.90;1.80;;;1.90;99.90;;;;;;12439833;28;20127;-83
2022/04/01 20:01:53;;;;;;;4.55;1.52;;;1.80;99.90;;;;;;12439720;28;20072;-83
2022/04/01 20:07:55;;;;;;;5.50;1.70;;;1.80;99.90;;;;;;12451754;28;20060;-83
2022/04/01 20:13:57;;;;;;;3.40;1.70;;;1.80;99.90;;;;;;12455522;28;20107;-83
2022/04/01 20:19:59;;;;;;;3.95;1.88;;;1.80;99.90;;;;;;12438070;28;20045;-85
2022/04/01 20:26:00;;;;;;;4.28;1.73;;;1.80;99.90;;;;;;12430023;28;20050;-86
2022/04/01 20:32:02;;;;;;;5.63;1.65;;;1.80;99.90;;;;;;12434536;28;20698;-85
2022/04/01 20:38:05;;;;;;;4.70;1.42;;;1.80;99.90;;;;;;12436699;28;20054;-83
2022/04/01 20:44:08;;;;;;;4.28;1.50;;;1.70;99.90;;;;;;12428806;28;20088;-86
2022/04/01 20:50:10;;;;;;;5.32;1.42;;;1.70;99.90;;;;;;12436670;28;20145;-85
2022/04/01 20:56:12;;;;;;;5.03;1.67;;;1.70;99.90;;;;;;12434142;28;20122;-86
2022/04/01 21:02:14;;;;;;;3.65;1.20;;;1.70;99.90;;;;;;12432215;28;20046;-84
2022/04/01 21:08:16;;;;;;;3.65;1.50;;;1.60;99.90;;;;;;12437243;28;20486;-84
2022/04/01 21:14:18;;;;;;;4.18;1.60;;;1.60;99.90;;;;;;12434501;28;20079;-86
2022/04/01 21:20:25;;;;;;;4.78;1.30;;;1.70;99.90;;;;;;12436408;28;20165;-85
2022/04/01 21:32:47;;;;;;;3.58;1.48;;;1.60;99.90;;;;;;12431551;28;20049;-86
2022/04/01 21:38:49;;;;;;;2.03;1.10;;;1.70;99.90;;;;;;12464483;28;20050;-83
2022/04/01 21:44:51;;;;;;;2.78;1.38;;;1.70;99.90;;;;;;12435541;28;20054;-83
2022/04/01 21:50:53;;;;;;;7.65;1.77;;;1.60;99.90;;;;;;12436279;28;20390;-84
2022/04/01 21:56:55;;;;;;;4.45;1.42;;;1.50;99.90;;;;;;12432411;28;20068;-87
2022/04/01 22:02:59;;;;;;;5.40;1.70;;;1.50;99.90;;;;;;12435284;28;20042;-87
2022/04/01 22:09:04;;;;;;;4.53;1.50;;;1.50;99.90;;;;;;12447004;28;20119;-86
2022/04/01 22:15:06;;;;;;;6.55;1.83;;;1.40;99.90;;;;;;12435930;28;20347;-86
2022/04/01 22:21:10;;;;;;;4.85;1.60;;;1.40;99.90;;;;;;12427415;28;20100;-83
2022/04/01 22:27:12;;;;;;;3.65;1.65;;;1.40;99.90;;;;;;12439537;28;20144;-84
2022/04/01 22:33:22;;;;;;;7.00;1.70;;;1.50;99.90;;;;;;12430759;28;20052;-87
2022/04/01 22:39:24;;;;;;;2.97;1.33;;;1.40;99.90;;;;;;12436202;28;20049;-86
2022/04/01 22:45:27;;;;;;;7.82;1.77;;;1.30;99.90;;;;;;12425297;28;20046;-86
2022/04/01 22:57:49;;;;;;;6.80;1.75;;;1.30;99.90;;;;;;12433096;28;20061;-87
2022/04/01 23:03:50;;;;;;;3.67;1.50;;;1.30;99.90;;;;;;12434421;28;20053;-87
2022/04/01 23:09:53;;;;;;;6.90;1.58;;;1.30;99.90;;;;;;12437115;28;20081;-84
2022/04/01 23:15:54;;;;;;;6.10;1.90;;;1.30;99.90;;;;;;12427893;28;20141;-83
2022/04/01 23:21:59;;;;;;;6.43;1.60;;;1.30;99.90;;;;;;12435163;28;20045;-83
2022/04/01 23:28:01;;;;;;;8.90;1.90;;;1.20;99.90;;;;;;12442902;28;20042;-86
2022/04/01 23:34:03;;;;;;;5.80;1.80;;;1.10;99.90;;;;;;12442795;28;20092;-86
2022/04/01 23:40:07;;;;;;;3.63;1.60;;;1.20;99.90;;;;;;12436737;28;20107;-86
2022/04/01 23:46:08;;;;;;;7.00;1.80;;;1.20;99.90;;;;;;12450541;28;20053;-83
2022/04/01 23:52:10;;;;;;;6.50;1.70;;;1.10;99.90;;;;;;12453488;28;20548;-86
2022/04/01 23:58:14;;;;;;;9.68;1.85;;;1.10;99.90;;;;;;12443797;28;20536;-86
